createdAt,value
2022-11-16T00:02:20.537Z,7.44
2022-11-16T00:04:50.231Z,7.48
2022-11-16T00:07:19.881Z,7.39
2022-11-16T00:09:47.833Z,7.42
2022-11-16T00:12:17.386Z,7.46
2022-11-16T00:14:47.003Z,7.61
2022-11-16T00:17:16.537Z,7.36
2022-11-16T00:19:47.870Z,7.47
2022-11-16T00:22:17.390Z,7.37
2022-11-16T00:24:47.437Z,7.51
2022-11-16T00:27:17.093Z,7.50
2022-11-16T00:29:46.566Z,7.46
2022-11-16T00:32:16.068Z,7.58
2022-11-16T00:34:43.771Z,7.68
2022-11-16T00:37:13.241Z,7.46
2022-11-16T00:39:42.766Z,7.61
2022-11-16T00:42:12.223Z,7.61
2022-11-16T00:44:41.679Z,7.72
2022-11-16T00:47:11.115Z,7.56
2022-11-16T00:49:38.840Z,7.57
2022-11-16T00:52:08.337Z,7.60
2022-11-16T00:54:37.803Z,7.53
2022-11-16T00:57:07.239Z,7.58
2022-11-16T00:59:36.742Z,7.52
2022-11-16T01:02:06.301Z,7.57
2022-11-16T01:04:35.811Z,7.45
2022-11-16T01:07:05.301Z,7.53
2022-11-16T01:09:34.930Z,7.49
2022-11-16T01:12:10.596Z,7.60
2022-11-16T01:14:45.602Z,7.46
2022-11-16T01:17:16.025Z,7.59
2022-11-16T01:19:45.658Z,7.53
2022-11-16T01:22:15.277Z,7.55
2022-11-16T01:24:47.284Z,7.55
2022-11-16T01:27:16.790Z,7.40
2022-11-16T01:29:45.456Z,7.55
2022-11-16T01:32:15.499Z,7.57
2022-11-16T01:34:45.081Z,7.54
2022-11-16T01:37:14.761Z,7.60
2022-11-16T01:39:44.728Z,7.68
2022-11-16T01:42:26.611Z,7.45
2022-11-16T01:45:31.045Z,7.51
2022-11-16T01:48:00.588Z,7.48
2022-11-16T01:50:30.497Z,7.52
2022-11-16T01:53:06.055Z,7.61
2022-11-16T01:55:38.000Z,7.59
2022-11-16T01:58:08.224Z,7.56
2022-11-16T02:00:37.702Z,7.60
2022-11-16T02:03:07.359Z,7.57
2022-11-16T02:06:20.376Z,7.66
2022-11-16T02:09:53.805Z,7.70
2022-11-16T02:12:56.962Z,7.66
2022-11-16T02:15:54.042Z,7.65
2022-11-16T02:18:36.331Z,7.61
2022-11-16T02:21:22.422Z,7.70
2022-11-16T02:24:27.104Z,7.41
2022-11-16T02:28:12.159Z,7.45
2022-11-16T02:30:49.609Z,7.50
2022-11-16T02:33:27.882Z,7.53
2022-11-16T02:36:00.469Z,7.47
2022-11-16T02:38:39.108Z,7.59
2022-11-16T02:41:21.964Z,7.60
2022-11-16T02:44:03.565Z,7.60
2022-11-16T02:46:41.768Z,7.48
2022-11-16T02:49:18.813Z,7.57
2022-11-16T02:51:49.057Z,7.42
2022-11-16T02:54:22.643Z,7.45
2022-11-16T02:57:03.396Z,7.50
2022-11-16T02:59:52.164Z,7.55
2022-11-16T03:02:49.011Z,7.47
2022-11-16T03:05:53.047Z,7.61
2022-11-16T03:08:38.562Z,7.47
2022-11-16T03:11:30.563Z,7.46
2022-11-16T03:14:05.303Z,7.54
2022-11-16T03:16:41.428Z,7.73
2022-11-16T03:19:20.940Z,7.58
2022-11-16T03:22:39.624Z,7.67
2022-11-16T03:25:17.173Z,7.58
2022-11-16T03:27:58.027Z,7.65
2022-11-16T03:30:32.393Z,7.82
2022-11-16T03:33:22.574Z,7.50
2022-11-16T03:36:16.423Z,7.75
2022-11-16T03:38:50.867Z,7.64
2022-11-16T03:41:22.047Z,7.70
2022-11-16T03:43:53.631Z,7.59
2022-11-16T03:46:23.231Z,7.57
2022-11-16T03:48:59.424Z,7.31
2022-11-16T03:51:29.296Z,7.43
2022-11-16T03:53:58.845Z,7.62
2022-11-16T03:56:28.483Z,7.51
2022-11-16T03:58:56.263Z,7.43
2022-11-16T04:01:25.839Z,7.43
2022-11-16T04:03:53.659Z,7.40
2022-11-16T04:06:41.729Z,7.53
2022-11-16T04:09:29.793Z,7.69
2022-11-16T04:12:17.701Z,7.43
2022-11-16T04:15:05.843Z,7.66
2022-11-16T04:17:53.931Z,7.65
2022-11-16T04:20:42.056Z,7.72
2022-11-16T04:23:34.252Z,7.56
2022-11-16T04:26:03.809Z,7.57
2022-11-16T04:28:35.969Z,7.54
2022-11-16T04:31:25.323Z,7.59
2022-11-16T04:34:13.550Z,7.64
2022-11-16T04:37:01.596Z,7.67
2022-11-16T04:39:31.185Z,7.57
2022-11-16T04:42:15.721Z,7.65
2022-11-16T04:45:04.045Z,7.66
2022-11-16T04:47:33.934Z,7.54
2022-11-16T04:50:04.409Z,7.82
2022-11-16T04:52:33.984Z,7.79
2022-11-16T04:55:03.664Z,7.59
2022-11-16T04:57:33.203Z,7.75
2022-11-16T05:00:04.802Z,7.74
2022-11-16T05:02:34.464Z,7.64
2022-11-16T05:05:02.253Z,7.58
2022-11-16T05:07:31.904Z,7.57
2022-11-16T05:10:01.872Z,7.72
2022-11-16T05:12:31.976Z,7.67
2022-11-16T05:15:01.800Z,7.67
2022-11-16T05:17:31.320Z,7.84
2022-11-16T05:20:19.615Z,7.95
2022-11-16T05:22:59.640Z,7.91
2022-11-16T05:25:33.833Z,7.85
2022-11-16T05:28:04.217Z,7.88
2022-11-16T05:30:34.562Z,7.75
2022-11-16T05:33:04.959Z,7.46
2022-11-16T05:35:34.414Z,7.54
2022-11-16T05:38:03.900Z,7.64
2022-11-16T05:40:33.450Z,7.88
2022-11-16T05:43:03.039Z,7.69
2022-11-16T05:45:32.554Z,7.89
2022-11-16T05:48:00.253Z,7.83
2022-11-16T05:50:30.687Z,7.93
2022-11-16T05:53:00.162Z,7.87
2022-11-16T05:55:29.709Z,7.83
2022-11-16T05:57:59.214Z,7.77
2022-11-16T06:00:27.262Z,7.70
2022-11-16T06:02:56.783Z,7.91
2022-11-16T06:05:26.308Z,7.85
2022-11-16T06:07:55.857Z,7.78
2022-11-16T06:10:25.324Z,7.90
2022-11-16T06:12:54.931Z,7.95
2022-11-16T06:15:24.481Z,7.94
2022-11-16T06:17:53.998Z,7.91
2022-11-16T06:20:23.486Z,7.93
2022-11-16T06:22:51.224Z,7.92
2022-11-16T06:25:20.695Z,7.94
2022-11-16T06:27:48.420Z,8.00
2022-11-16T06:30:19.140Z,8.00
2022-11-16T06:32:49.825Z,7.89
2022-11-16T06:35:18.094Z,7.85
2022-11-16T06:37:45.864Z,7.94
2022-11-16T06:40:13.698Z,7.93
2022-11-16T06:42:43.289Z,7.96
2022-11-16T06:45:14.004Z,8.03
2022-11-16T06:47:43.527Z,8.17
2022-11-16T06:50:13.014Z,8.10
2022-11-16T06:52:42.564Z,7.86
2022-11-16T06:55:12.023Z,7.99
2022-11-16T06:57:42.832Z,8.01
2022-11-16T07:00:15.388Z,8.07
2022-11-16T07:02:44.941Z,7.99
2022-11-16T07:05:16.536Z,7.95
2022-11-16T07:07:44.303Z,7.81
2022-11-16T07:10:14.985Z,7.84
2022-11-16T07:12:42.806Z,7.88
2022-11-16T07:15:11.692Z,7.68
2022-11-16T07:17:42.687Z,7.92
2022-11-16T07:20:12.214Z,8.12
2022-11-16T07:22:40.063Z,8.02
2022-11-16T07:25:10.643Z,7.94
2022-11-16T07:27:39.392Z,8.17
2022-11-16T07:30:09.852Z,8.08
2022-11-16T07:32:40.366Z,8.17
2022-11-16T07:35:10.128Z,8.08
2022-11-16T07:37:39.767Z,8.11
2022-11-16T07:40:11.623Z,8.13
2022-11-16T07:42:42.184Z,8.28
2022-11-16T07:45:13.813Z,8.21
2022-11-16T07:47:41.686Z,8.10
2022-11-16T07:50:12.143Z,8.12
2022-11-16T07:52:41.748Z,8.26
2022-11-16T07:55:11.346Z,8.20
2022-11-16T07:57:41.434Z,8.21
2022-11-16T08:00:11.495Z,8.31
2022-11-16T08:02:41.001Z,8.29
2022-11-16T08:05:10.966Z,8.38
2022-11-16T08:07:38.758Z,8.42
2022-11-16T08:10:09.899Z,8.26
2022-11-16T08:12:37.741Z,8.32
2022-11-16T08:15:06.059Z,8.29
2022-11-16T08:17:36.429Z,8.42
2022-11-16T08:20:09.734Z,8.28
2022-11-16T08:22:39.360Z,8.28
2022-11-16T08:25:08.184Z,8.51
2022-11-16T08:27:36.388Z,8.39
2022-11-16T08:30:10.021Z,8.30
2022-11-16T08:32:41.357Z,8.44
2022-11-16T08:35:11.738Z,8.34
2022-11-16T08:37:39.550Z,8.59
2022-11-16T08:40:10.052Z,8.63
2022-11-16T08:42:43.670Z,8.40
2022-11-16T08:45:13.758Z,8.51
2022-11-16T08:47:44.789Z,8.46
2022-11-16T08:50:12.538Z,8.59
2022-11-16T08:52:40.750Z,8.62
2022-11-16T08:55:10.671Z,8.42
2022-11-16T08:57:38.411Z,8.61
2022-11-16T09:00:11.328Z,8.52
2022-11-16T09:02:40.898Z,8.67
2022-11-16T09:05:12.169Z,8.59
2022-11-16T09:07:44.243Z,8.42
2022-11-16T09:10:13.018Z,8.57
2022-11-16T09:12:41.758Z,8.63
2022-11-16T09:15:11.405Z,8.78
2022-11-16T09:17:40.926Z,8.53
2022-11-16T09:20:09.467Z,8.56
2022-11-16T09:22:40.038Z,8.73
2022-11-16T09:25:11.262Z,8.71
2022-11-16T09:27:40.932Z,8.61
2022-11-16T09:30:11.890Z,8.84
2022-11-16T09:32:41.466Z,8.59
2022-11-16T09:35:09.988Z,8.78
2022-11-16T09:37:39.581Z,8.77
2022-11-16T09:40:12.197Z,8.72
2022-11-16T09:42:59.217Z,8.91
2022-11-16T09:45:55.827Z,8.87
2022-11-16T09:48:26.338Z,9.01
2022-11-16T09:51:08.310Z,8.81
2022-11-16T09:54:02.819Z,9.06
2022-11-16T09:56:37.696Z,8.84
2022-11-16T09:59:23.632Z,9.08
2022-11-16T10:02:37.510Z,8.72
2022-11-16T10:05:52.535Z,8.97
2022-11-16T10:08:51.406Z,8.81
2022-11-16T10:11:50.542Z,8.79
2022-11-16T10:15:14.567Z,8.91
2022-11-16T10:18:07.628Z,8.88
2022-11-16T10:20:53.532Z,9.02
2022-11-16T10:23:57.301Z,8.70
2022-11-16T10:26:53.831Z,8.86
2022-11-16T10:30:17.271Z,8.98
2022-11-16T10:33:08.064Z,9.01
2022-11-16T10:35:53.797Z,9.18
2022-11-16T10:38:31.194Z,9.13
2022-11-16T10:41:37.183Z,9.13
2022-11-16T10:44:45.995Z,9.14
2022-11-16T10:48:22.547Z,9.19
2022-11-16T10:50:53.682Z,9.57
2022-11-16T10:53:40.623Z,9.40
2022-11-16T10:56:30.881Z,9.43
2022-11-16T10:59:10.457Z,9.56
2022-11-16T11:01:56.259Z,9.30
2022-11-16T11:04:32.905Z,9.25
2022-11-16T11:07:29.385Z,9.52
2022-11-16T11:09:59.653Z,9.14
2022-11-16T11:12:38.061Z,9.34
2022-11-16T11:15:11.632Z,9.30
2022-11-16T11:17:47.907Z,9.60
2022-11-16T11:20:22.727Z,9.56
2022-11-16T11:23:05.502Z,9.54
2022-11-16T11:25:58.261Z,9.29
2022-11-16T11:28:37.899Z,9.41
2022-11-16T11:31:27.451Z,9.60
2022-11-16T11:34:23.929Z,9.59
2022-11-16T11:37:06.766Z,9.52
2022-11-16T11:39:38.097Z,9.25
2022-11-16T11:42:13.567Z,9.64
2022-11-16T11:45:08.727Z,9.57
2022-11-16T11:47:58.752Z,9.50
2022-11-16T11:50:55.473Z,9.18
2022-11-16T11:53:58.972Z,9.59
2022-11-16T11:56:33.316Z,9.53
2022-11-16T11:59:05.692Z,9.15
2022-11-16T12:02:28.654Z,9.43
2022-11-16T12:06:06.303Z,9.08
2022-11-16T12:08:57.177Z,9.33
2022-11-16T12:12:20.001Z,9.32
2022-11-16T12:15:29.638Z,9.29
2022-11-16T12:18:52.854Z,9.18
2022-11-16T12:22:29.912Z,9.14
2022-11-16T12:25:44.435Z,9.62
2022-11-16T12:28:23.503Z,9.41
2022-11-16T12:31:44.576Z,9.29
2022-11-16T12:34:52.506Z,9.26
2022-11-16T12:37:55.799Z,9.26
2022-11-16T12:40:50.358Z,9.30
2022-11-16T12:43:51.731Z,9.09
2022-11-16T12:47:18.026Z,9.32
2022-11-16T12:50:20.278Z,9.48
2022-11-16T12:53:32.098Z,9.45
2022-11-16T12:56:36.953Z,9.18
2022-11-16T12:59:36.541Z,9.35
2022-11-16T13:02:22.735Z,9.53
2022-11-16T13:05:26.210Z,9.44
2022-11-16T13:08:36.827Z,9.35
2022-11-16T13:11:52.604Z,9.67
2022-11-16T13:14:47.511Z,9.51
2022-11-16T13:17:32.188Z,9.49
2022-11-16T13:20:35.875Z,9.38
2022-11-16T13:23:39.097Z,9.51
2022-11-16T13:26:30.148Z,9.39
2022-11-16T13:29:27.926Z,9.27
2022-11-16T13:32:37.754Z,9.17
2022-11-16T13:35:17.489Z,9.32
2022-11-16T13:37:50.949Z,9.19
2022-11-16T13:40:34.470Z,9.29
2022-11-16T13:43:17.264Z,9.35
2022-11-16T13:46:01.702Z,9.39
2022-11-16T13:48:39.522Z,9.53
2022-11-16T13:51:20.541Z,9.53
2022-11-16T13:56:52.150Z,9.29
2022-11-16T13:59:31.034Z,9.54
2022-11-16T14:02:31.867Z,9.49
2022-11-16T14:05:12.997Z,9.54
2022-11-16T14:07:49.670Z,9.40
2022-11-16T14:10:34.277Z,9.54
2022-11-16T14:13:38.668Z,9.57
2022-11-16T14:16:16.692Z,8.92
2022-11-16T14:18:51.545Z,9.22
2022-11-16T14:21:39.591Z,9.23
2022-11-16T14:25:02.696Z,9.26
2022-11-16T14:27:51.210Z,9.07
2022-11-16T14:30:28.730Z,9.18
2022-11-16T14:32:58.953Z,9.23
2022-11-16T14:35:39.644Z,9.15
2022-11-16T14:38:35.054Z,9.31
2022-11-16T14:41:13.881Z,9.28
2022-11-16T14:43:49.533Z,9.31
2022-11-16T14:46:26.799Z,9.25
2022-11-16T14:49:00.055Z,9.17
2022-11-16T14:51:50.243Z,9.27
2022-11-16T14:54:42.360Z,9.25
2022-11-16T14:57:24.389Z,9.13
2022-11-16T15:00:20.177Z,9.01
2022-11-16T15:03:00.903Z,9.16
2022-11-16T15:05:36.474Z,8.92
2022-11-16T15:08:19.518Z,9.06
2022-11-16T15:10:52.611Z,8.93
2022-11-16T15:13:24.947Z,8.97
2022-11-16T15:16:20.232Z,9.11
2022-11-16T15:19:02.216Z,9.08
2022-11-16T15:21:30.845Z,9.05
2022-11-16T15:24:28.759Z,9.04
2022-11-16T15:26:48.985Z,8.94
2022-11-16T15:29:21.380Z,8.93
2022-11-16T15:31:50.774Z,8.99
2022-11-16T15:34:21.584Z,8.88
2022-11-16T15:36:50.229Z,9.08
2022-11-16T15:39:24.229Z,9.14
2022-11-16T15:42:00.376Z,9.08
2022-11-16T15:44:33.865Z,9.16
2022-11-16T15:47:05.457Z,9.20
2022-11-16T15:49:39.083Z,9.14
2022-11-16T15:52:09.040Z,9.06
2022-11-16T15:54:57.658Z,9.06
2022-11-16T15:57:28.263Z,9.19
2022-11-16T15:59:57.755Z,9.24
2022-11-16T16:02:29.164Z,9.28
2022-11-16T16:04:58.758Z,9.14
2022-11-16T16:07:49.366Z,9.19
2022-11-16T16:10:20.821Z,9.15
2022-11-16T16:12:57.451Z,9.15
2022-11-16T16:15:36.204Z,9.14
2022-11-16T16:18:37.543Z,9.22
2022-11-16T16:21:07.163Z,9.16
2022-11-16T16:23:50.900Z,9.17
2022-11-16T16:26:22.480Z,9.14
2022-11-16T16:28:52.747Z,8.99
2022-11-16T16:31:24.085Z,9.07
2022-11-16T16:33:55.735Z,9.05
2022-11-16T16:36:24.643Z,8.96
2022-11-16T16:38:57.337Z,8.97
2022-11-16T16:41:26.810Z,9.08
2022-11-16T16:43:56.586Z,9.13
2022-11-16T16:46:27.402Z,9.09
2022-11-16T16:48:57.645Z,9.01
2022-11-16T16:51:27.941Z,9.02
2022-11-16T16:53:58.198Z,8.95
2022-11-16T16:56:27.918Z,8.90
2022-11-16T16:58:57.562Z,8.95
2022-11-16T17:01:28.567Z,9.01
2022-11-16T17:03:57.905Z,8.96
2022-11-16T17:06:31.037Z,8.97
2022-11-16T17:09:01.261Z,8.99
2022-11-16T17:11:30.118Z,9.01
2022-11-16T17:13:59.887Z,8.86
2022-11-16T17:16:29.485Z,8.98
2022-11-16T17:18:59.269Z,8.94
2022-11-16T17:21:28.068Z,8.86
2022-11-16T17:23:57.730Z,8.93
2022-11-16T17:26:29.593Z,8.79
2022-11-16T17:28:59.414Z,8.90
2022-11-16T17:31:29.324Z,8.90
2022-11-16T17:33:58.866Z,8.81
2022-11-16T17:36:28.423Z,8.90
2022-11-16T17:38:58.325Z,8.89
2022-11-16T17:41:28.240Z,8.75
2022-11-16T17:43:58.069Z,8.85
2022-11-16T17:46:27.621Z,8.74
2022-11-16T17:48:57.377Z,8.78
2022-11-16T17:51:29.966Z,8.88
2022-11-16T17:53:59.439Z,8.86
2022-11-16T17:56:29.512Z,8.88
2022-11-16T17:58:59.066Z,8.84
2022-11-16T18:01:28.782Z,8.73
2022-11-16T18:03:59.933Z,8.72
2022-11-16T18:06:29.878Z,8.78
2022-11-16T18:08:59.421Z,8.78
2022-11-16T18:11:29.317Z,8.72
2022-11-16T18:14:01.498Z,8.73
2022-11-16T18:16:33.869Z,8.78
2022-11-16T18:19:06.501Z,8.72
2022-11-16T18:21:43.380Z,8.73
2022-11-16T18:24:13.968Z,8.71
2022-11-16T18:26:43.621Z,8.71
2022-11-16T18:29:16.084Z,8.74
2022-11-16T18:31:46.236Z,8.69
2022-11-16T18:34:16.892Z,8.73
2022-11-16T18:36:49.021Z,8.74
2022-11-16T18:39:18.523Z,8.71
2022-11-16T18:41:54.747Z,8.68
2022-11-16T18:44:25.086Z,8.85
2022-11-16T18:46:55.513Z,8.94
2022-11-16T18:49:24.283Z,8.93
2022-11-16T18:51:53.723Z,8.97
2022-11-16T18:54:23.157Z,8.88
2022-11-16T18:56:52.615Z,8.87
2022-11-16T18:59:23.765Z,8.82
2022-11-16T19:01:53.229Z,8.78
2022-11-16T19:04:22.809Z,8.79
2022-11-16T19:06:52.324Z,8.86
2022-11-16T19:09:21.795Z,8.85
2022-11-16T19:11:51.843Z,8.89
2022-11-16T19:14:21.318Z,8.87
2022-11-16T19:16:56.734Z,8.87
2022-11-16T19:19:27.918Z,8.83
2022-11-16T19:21:57.179Z,8.82
2022-11-16T19:24:26.577Z,8.75
2022-11-16T19:26:55.980Z,8.83
2022-11-16T19:29:25.503Z,8.79
2022-11-16T19:31:54.912Z,8.79
2022-11-16T19:34:26.739Z,8.71
2022-11-16T19:36:59.891Z,8.68
2022-11-16T19:39:28.444Z,8.74
2022-11-16T19:41:57.883Z,8.82
2022-11-16T19:44:27.480Z,8.78
2022-11-16T19:46:57.428Z,8.83
2022-11-16T19:49:27.213Z,8.72
2022-11-16T19:51:56.710Z,8.75
2022-11-16T19:54:26.710Z,8.70
2022-11-16T19:56:56.182Z,8.75
2022-11-16T19:59:23.907Z,8.72
2022-11-16T20:01:53.349Z,8.73
2022-11-16T20:04:22.029Z,8.72
2022-11-16T20:06:52.018Z,8.70
2022-11-16T20:09:21.507Z,8.65
2022-11-16T20:11:51.195Z,8.75
2022-11-16T20:14:19.862Z,8.80
2022-11-16T20:16:50.487Z,8.71
2022-11-16T20:19:21.568Z,8.85
2022-11-16T20:21:51.261Z,8.82
2022-11-16T20:24:20.751Z,8.67
2022-11-16T20:26:50.508Z,8.65
2022-11-16T20:29:20.503Z,8.70
2022-11-16T20:31:48.382Z,8.82
2022-11-16T20:34:20.476Z,8.73
2022-11-16T20:36:51.360Z,8.75
2022-11-16T20:39:21.655Z,8.82
2022-11-16T20:41:51.131Z,8.75
2022-11-16T20:44:23.429Z,8.64
2022-11-16T20:46:53.002Z,8.67
2022-11-16T20:49:22.567Z,8.73
2022-11-16T20:51:52.064Z,8.66
2022-11-16T20:54:21.609Z,8.69
2022-11-16T20:56:51.091Z,8.64
2022-11-16T20:59:20.944Z,8.64
2022-11-16T21:01:52.988Z,8.70
2022-11-16T21:04:22.976Z,8.75
2022-11-16T21:06:52.498Z,8.74
2022-11-16T21:09:25.880Z,8.63
2022-11-16T21:12:13.531Z,8.69
2022-11-16T21:14:43.075Z,8.67
2022-11-16T21:17:12.595Z,8.66
2022-11-16T21:19:54.237Z,8.72
2022-11-16T21:22:32.406Z,8.66
2022-11-16T21:25:02.484Z,8.60
2022-11-16T21:27:31.879Z,8.64
2022-11-16T21:30:01.383Z,8.65
2022-11-16T21:32:30.828Z,8.67
2022-11-16T21:35:00.305Z,8.72
2022-11-16T21:37:29.860Z,8.78
2022-11-16T21:39:59.295Z,8.66
2022-11-16T21:42:28.792Z,8.82
2022-11-16T21:44:58.236Z,8.65
2022-11-16T21:47:26.851Z,8.66
2022-11-16T21:50:24.670Z,8.77
2022-11-16T21:52:45.881Z,8.66
2022-11-16T21:55:15.487Z,8.73
2022-11-16T21:57:44.991Z,8.51
2022-11-16T22:00:14.815Z,8.70
2022-11-16T22:02:44.224Z,8.82
2022-11-16T22:05:31.738Z,8.80
2022-11-16T22:08:11.591Z,8.77
2022-11-16T22:10:41.072Z,8.84
2022-11-16T22:13:10.544Z,8.81
2022-11-16T22:15:39.938Z,8.91
2022-11-16T22:18:09.339Z,8.79
2022-11-16T22:20:39.106Z,8.71
2022-11-16T22:23:08.542Z,8.75
2022-11-16T22:25:37.590Z,8.77
2022-11-16T22:28:20.532Z,8.77
2022-11-16T22:30:52.269Z,8.62
2022-11-16T22:33:21.896Z,8.71
2022-11-16T22:35:51.348Z,8.82
2022-11-16T22:38:20.824Z,8.75
2022-11-16T22:40:52.773Z,8.71
2022-11-16T22:43:26.779Z,8.69
2022-11-16T22:46:05.373Z,8.72
2022-11-16T22:48:38.341Z,8.66
2022-11-16T22:51:29.247Z,8.70
2022-11-16T22:54:04.686Z,8.76
2022-11-16T22:56:34.708Z,8.70
2022-11-16T22:59:05.607Z,8.66
2022-11-16T23:01:35.280Z,8.66
2022-11-16T23:04:05.750Z,8.63
2022-11-16T23:06:35.262Z,8.62
2022-11-16T23:09:05.095Z,8.53
2022-11-16T23:11:52.957Z,8.57
2022-11-16T23:14:41.049Z,8.44
2022-11-16T23:17:10.550Z,8.60
2022-11-16T23:19:58.643Z,8.70
2022-11-16T23:22:46.616Z,8.64
2022-11-16T23:25:34.672Z,8.44
2022-11-16T23:28:08.724Z,8.57
2022-11-16T23:30:38.612Z,8.61
2022-11-16T23:33:09.269Z,8.70
2022-11-16T23:35:38.706Z,8.69
2022-11-16T23:38:09.127Z,8.66
2022-11-16T23:40:40.608Z,8.59
2022-11-16T23:43:29.604Z,8.58
2022-11-16T23:45:59.067Z,8.64
2022-11-16T23:48:28.539Z,8.55
2022-11-16T23:50:58.030Z,8.40
2022-11-16T23:53:27.459Z,8.45
2022-11-16T23:56:05.964Z,8.59
2022-11-16T23:58:35.770Z,8.56
